Time;durP1;ratioP1;P1;durP2;ratioP2;P2;SDS_P1;SDS_P2;PMS_P1;PMS_P2;Temp;Humidity;BMP_temperature;BMP_pressure;BME280_temperature;BME280_humidity;BME280_pressure;Samples;Min_cycle;Max_cycle;Signal;HPM_P1;HPM_P2
2022/12/14 00:01:18;;;;;;;15.70;9.70;;;-8.50;99.90;-9.30;99868.00;;;;5016834;27;84988;-61
2022/12/14 00:03:44;;;;;;;20.87;10.67;;;-8.60;99.90;-9.20;99871.00;;;;5018624;27;102979;-60
2022/12/14 00:06:16;;;;;;;14.60;9.57;;;-8.50;99.90;-9.20;99863.00;;;;5015751;27;83394;-61
2022/12/14 00:08:44;;;;;;;19.57;10.97;;;-8.40;99.90;-9.10;99869.00;;;;5018191;27;82757;-58
2022/12/14 00:11:10;;;;;;;17.57;9.37;;;-8.40;99.90;-9.10;99858.00;;;;5013502;27;104750;-61
2022/12/14 00:13:36;;;;;;;15.37;9.70;;;-8.30;99.90;-9.10;99863.00;;;;5016586;27;102835;-58
2022/12/14 00:16:12;;;;;;;20.73;10.63;;;-8.50;99.90;-9.10;99847.00;;;;5018620;27;82831;-58
2022/12/14 00:18:39;;;;;;;13.00;9.77;;;-8.30;99.90;-9.00;99848.00;;;;5017972;27;83480;-59
2022/12/14 00:21:11;;;;;;;16.70;9.47;;;-8.30;99.90;-9.00;99839.00;;;;5017636;27;83906;-58
2022/12/14 00:23:39;;;;;;;22.40;12.03;;;-8.00;99.90;-8.90;99844.00;;;;5018155;27;83912;-58
2022/12/14 00:26:16;;;;;;;17.87;10.13;;;-8.10;99.90;-8.90;99845.00;;;;5015976;27;83513;-59
2022/12/14 00:28:43;;;;;;;20.10;10.47;;;-8.20;99.90;-8.90;99834.00;;;;5019297;27;83224;-58
2022/12/14 00:31:10;;;;;;;16.10;9.80;;;-8.10;99.90;-8.80;99839.00;;;;5015856;27;83361;-62
2022/12/14 00:33:36;;;;;;;16.43;9.10;;;-7.40;99.90;-8.70;99844.00;;;;5016284;27;84498;-59
2022/12/14 00:36:04;;;;;;;19.23;10.33;;;-8.10;99.90;-8.70;99835.00;;;;5016334;27;82782;-59
2022/12/14 00:38:30;;;;;;;17.30;9.93;;;-7.90;99.90;-8.60;99832.00;;;;5016799;27;83497;-58
2022/12/14 00:40:56;;;;;;;18.50;10.47;;;-7.20;99.90;-8.50;99832.00;;;;5019044;27;113585;-60
2022/12/14 00:43:22;;;;;;;16.17;10.40;;;-7.80;99.90;-8.50;99811.00;;;;5015204;27;112672;-59
2022/12/14 00:45:48;;;;;;;20.27;9.87;;;-7.80;99.90;-8.50;99821.00;;;;5016181;27;103934;-58
2022/12/14 00:48:15;;;;;;;15.90;10.43;;;-7.80;99.90;-8.50;99818.00;;;;5015615;27;104859;-57
2022/12/14 00:50:41;;;;;;;15.50;10.53;;;-7.70;99.90;-8.50;99826.00;;;;5015944;27;102673;-59
2022/12/14 00:53:06;;;;;;;17.87;11.07;;;-7.80;99.90;-8.50;99826.00;;;;5014215;27;91476;-59
2022/12/14 00:55:40;;;;;;;15.63;10.43;;;-7.80;99.90;-8.50;99825.00;;;;5018354;27;90627;-59
2022/12/14 00:58:07;;;;;;;18.20;10.73;;;-7.80;99.90;-8.60;99807.00;;;;5016486;27;99735;-59
2022/12/14 01:00:33;;;;;;;18.33;10.50;;;-7.80;99.90;-8.60;99817.00;;;;5008811;27;102716;-59
2022/12/14 01:02:59;;;;;;;18.00;9.83;;;-8.00;99.90;-8.60;99823.00;;;;5015857;27;113749;-60
2022/12/14 01:05:24;;;;;;;18.43;10.53;;;-7.80;99.90;-8.60;99803.00;;;;5016423;27;112535;-60
2022/12/14 01:07:50;;;;;;;15.27;8.87;;;-8.00;99.90;-8.60;99810.00;;;;5013597;27;108170;-58
2022/12/14 01:10:16;;;;;;;16.50;10.50;;;-7.90;99.90;-8.60;99807.00;;;;5014967;27;83322;-58
2022/12/14 01:12:42;;;;;;;15.57;10.27;;;-6.90;99.90;-8.60;99818.00;;;;5008743;27;98801;-59
2022/12/14 01:15:08;;;;;;;17.93;9.93;;;-7.90;99.90;-8.60;99804.00;;;;5008246;27;84546;-58
2022/12/14 01:17:34;;;;;;;16.30;9.87;;;-7.80;99.90;-8.60;99817.00;;;;5015841;27;82670;-60
2022/12/14 01:19:59;;;;;;;15.10;9.53;;;-7.80;99.90;-8.70;99827.00;;;;5014767;27;112537;-59
2022/12/14 01:22:25;;;;;;;17.40;10.70;;;-8.00;99.90;-8.60;99819.00;;;;5015086;27;106661;-57
2022/12/14 01:24:51;;;;;;;17.67;10.17;;;-7.90;99.90;-8.60;99820.00;;;;5013537;27;110524;-59
2022/12/14 01:27:16;;;;;;;17.57;10.37;;;-6.80;99.90;-8.50;99810.00;;;;5012913;27;109152;-60
2022/12/14 01:29:42;;;;;;;17.13;10.63;;;-7.80;99.90;-8.50;99818.00;;;;5015409;27;112622;-60
2022/12/14 01:32:08;;;;;;;19.90;10.63;;;-7.90;99.90;-8.40;99827.00;;;;5015988;27;103978;-59
2022/12/14 01:34:33;;;;;;;16.73;9.53;;;-7.70;99.90;-8.40;99805.00;;;;5013900;27;108565;-60
2022/12/14 01:36:59;;;;;;;16.67;10.07;;;-7.00;99.90;-8.40;99817.00;;;;5017484;27;107903;-61
2022/12/14 01:39:25;;;;;;;16.13;9.90;;;-6.80;99.90;-8.30;99810.00;;;;5014810;27;113445;-60
2022/12/14 01:41:51;;;;;;;16.47;11.13;;;-7.60;99.90;-8.30;99798.00;;;;5016620;27;83624;-62
2022/12/14 01:44:17;;;;;;;16.10;10.60;;;-8.10;99.90;-8.20;99794.00;;;;5016460;27;83396;-61
2022/12/14 01:47:13;;;;;;;17.00;10.77;;;-7.60;99.90;-8.30;99794.00;;;;5014835;27;96628;-60
2022/12/14 01:49:53;;;;;;;15.93;10.37;;;-7.60;99.90;-8.20;99797.00;;;;4992720;27;101472;-59
2022/12/14 01:52:35;;;;;;;19.23;10.67;;;-7.50;99.90;-8.20;99797.00;;;;4996164;27;95071;-59
2022/12/14 01:55:18;;;;;;;16.30;9.50;;;-7.50;99.90;-8.10;99793.00;;;;4994548;27;84364;-61
2022/12/14 01:58:13;;;;;;;19.03;10.20;;;-7.40;99.90;-8.00;99805.00;;;;5015537;27;86829;-61
2022/12/14 02:00:39;;;;;;;13.50;8.90;;;-7.40;99.90;-8.00;99786.00;;;;5007666;27;83487;-61
2022/12/14 02:03:11;;;;;;;15.97;10.43;;;-7.30;99.90;-7.90;99790.00;;;;5016007;27;83294;-60
2022/12/14 02:05:47;;;;;;;15.53;10.00;;;-7.30;99.90;-7.90;99797.00;;;;5010267;27;83811;-60
2022/12/14 02:08:14;;;;;;;18.70;10.13;;;-7.20;99.90;-7.80;99785.00;;;;5009788;27;100130;-59
2022/12/14 02:10:40;;;;;;;16.33;9.67;;;-7.20;99.90;-7.80;99786.00;;;;5011326;27;112928;-59
2022/12/14 02:13:38;;;;;;;14.70;9.47;;;-7.10;99.90;-7.80;99797.00;;;;5013044;27;112328;-60
2022/12/14 02:16:04;;;;;;;16.57;9.77;;;-7.10;99.90;-7.70;99784.00;;;;4994700;27;85741;-58
2022/12/14 02:18:33;;;;;;;17.83;10.87;;;-7.00;99.90;-7.70;99786.00;;;;5012317;27;82705;-60
2022/12/14 02:21:55;;;;;;;18.23;10.43;;;-7.00;99.90;-7.80;99778.00;;;;5010920;27;83565;-60
2022/12/14 02:24:51;;;;;;;18.93;10.33;;;-7.00;99.90;-7.80;99768.00;;;;5013357;27;84600;-60
2022/12/14 02:27:46;;;;;;;15.87;9.63;;;-7.00;99.90;-7.70;99765.00;;;;4994336;27;83552;-62
2022/12/14 02:30:22;;;;;;;17.23;10.53;;;-7.00;99.90;-7.70;99760.00;;;;4996268;27;100897;-60
2022/12/14 02:33:22;;;;;;;14.57;9.77;;;-7.00;99.90;-7.80;99761.00;;;;4997211;27;86380;-57
2022/12/14 02:36:01;;;;;;;13.53;9.40;;;-7.00;99.90;-7.80;99774.00;;;;4997776;27;84172;-59
2022/12/14 02:38:47;;;;;;;14.53;9.53;;;-7.10;99.90;-7.80;99764.00;;;;4997911;27;82909;-59
2022/12/14 02:41:37;;;;;;;13.43;8.70;;;-7.00;99.90;-7.80;99764.00;;;;5012909;27;82805;-59
2022/12/14 02:44:43;;;;;;;19.93;11.07;;;-7.10;99.90;-7.90;99769.00;;;;4996460;27;83063;-60
2022/12/14 02:47:29;;;;;;;17.80;9.43;;;-7.10;99.90;-7.90;99774.00;;;;4996837;27;84538;-61
2022/12/14 02:50:44;;;;;;;21.87;10.30;;;-7.20;99.90;-7.90;99767.00;;;;5012058;27;82865;-59
2022/12/14 02:53:23;;;;;;;14.53;9.47;;;-7.10;99.90;-7.90;99767.00;;;;4940827;27;83452;-59
2022/12/14 02:55:52;;;;;;;13.63;9.63;;;-7.10;99.90;-7.90;99758.00;;;;4995349;27;99081;-60
2022/12/14 02:58:45;;;;;;;16.63;9.07;;;-7.20;99.90;-7.90;99761.00;;;;4996011;27;92866;-60
2022/12/14 03:01:15;;;;;;;17.00;9.17;;;-7.10;99.90;-7.80;99752.00;;;;4994337;27;83644;-59
2022/12/14 03:03:41;;;;;;;20.67;10.47;;;-7.10;99.90;-7.80;99747.00;;;;5011465;27;99885;-60
2022/12/14 03:06:24;;;;;;;18.10;9.27;;;-7.10;99.90;-7.80;99756.00;;;;5008150;27;97009;-60
2022/12/14 03:08:58;;;;;;;14.50;9.97;;;-7.10;99.90;-7.80;99758.00;;;;5000405;27;83573;-59
2022/12/14 03:11:55;;;;;;;20.70;10.97;;;-7.10;99.90;-7.80;99756.00;;;;4992253;27;91404;-60
2022/12/14 03:14:20;;;;;;;15.90;10.20;;;-7.20;99.90;-7.80;99740.00;;;;5001335;27;100451;-59
2022/12/14 03:16:50;;;;;;;20.10;10.50;;;-7.20;99.90;-7.80;99743.00;;;;5009051;27;102350;-61
2022/12/14 03:19:40;;;;;;;17.67;10.13;;;-7.10;99.90;-7.90;99746.00;;;;4993307;27;83906;-60
2022/12/14 03:22:18;;;;;;;15.57;9.40;;;-7.20;99.90;-7.80;99743.00;;;;5009204;27;102206;-61
2022/12/14 03:24:49;;;;;;;16.20;10.17;;;-7.10;99.90;-7.80;99736.00;;;;5011588;27;82775;-60
2022/12/14 03:27:30;;;;;;;22.13;10.23;;;-7.20;99.90;-7.80;99729.00;;;;5006419;27;105944;-60
2022/12/14 03:30:02;;;;;;;16.50;10.57;;;-7.10;99.90;-7.70;99736.00;;;;5009898;27;92928;-60
2022/12/14 03:32:31;;;;;;;14.87;9.60;;;-7.00;99.90;-7.70;99748.00;;;;4996007;27;84771;-60
2022/12/14 03:35:07;;;;;;;13.57;9.70;;;-7.10;99.90;-7.70;99740.00;;;;4988046;27;109093;-59
2022/12/14 03:37:56;;;;;;;15.23;9.57;;;-7.00;99.90;-7.70;99743.00;;;;4995486;27;102746;-59
2022/12/14 03:40:31;;;;;;;14.17;9.23;;;-7.00;99.90;-7.70;99741.00;;;;4996796;27;82890;-60
2022/12/14 03:43:29;;;;;;;17.97;9.23;;;-6.90;99.90;-7.70;99735.00;;;;4990418;27;99821;-60
2022/12/14 03:46:03;;;;;;;16.97;9.73;;;-7.00;99.90;-7.70;99733.00;;;;5012005;27;82067;-59
2022/12/14 03:48:52;;;;;;;19.53;11.23;;;-7.00;99.90;-7.70;99729.00;;;;5012593;27;83504;-60
2022/12/14 03:51:35;;;;;;;13.83;10.87;;;-6.90;99.90;-7.70;99714.00;;;;4997857;27;107090;-58
2022/12/14 03:54:36;;;;;;;18.33;9.97;;;-7.00;99.90;-7.80;99723.00;;;;4998116;27;83525;-60
2022/12/14 03:57:14;;;;;;;17.97;11.03;;;-7.00;99.90;-7.80;99727.00;;;;4993281;27;83536;-58
2022/12/14 04:00:00;;;;;;;25.13;10.10;;;-7.00;99.90;-7.80;99714.00;;;;5014449;27;94166;-60
2022/12/14 04:02:44;;;;;;;16.70;9.10;;;-7.10;99.90;-7.80;99718.00;;;;5011387;27;83516;-60
2022/12/14 04:05:25;;;;;;;17.60;9.90;;;-7.10;99.90;-7.80;99727.00;;;;4999908;27;105463;-60
2022/12/14 04:08:23;;;;;;;13.17;9.53;;;-7.10;99.90;-7.80;99702.00;;;;4995500;27;83130;-61
2022/12/14 04:19:53;;;;;;;17.90;10.13;;;-7.00;99.90;-7.70;99698.00;;;;4996884;27;83515;-59
2022/12/14 04:22:25;;;;;;;13.73;9.57;;;-7.00;99.90;-7.60;99695.00;;;;5013282;27;102710;-62
2022/12/14 04:28:05;;;;;;;16.33;9.37;;;-6.90;99.90;-7.60;99692.00;;;;4999368;27;84814;-61
2022/12/14 04:30:36;;;;;;;14.23;8.83;;;-7.00;99.90;-7.60;99689.00;;;;4997824;27;90551;-58
2022/12/14 04:33:45;;;;;;;17.70;10.10;;;-5.90;99.90;-7.60;99677.00;;;;4998630;27;105968;-60
2022/12/14 04:35:55;;;;;;;15.97;10.40;;;-6.90;99.90;-7.60;99680.00;;;;5000772;27;83395;-60
2022/12/14 04:38:35;;;;;;;14.33;7.83;;;-6.90;99.90;-7.60;99671.00;;;;4997459;27;100218;-59
2022/12/14 04:41:07;;;;;;;17.93;10.23;;;-6.90;99.90;-7.60;99672.00;;;;4998431;27;102198;-60
2022/12/14 04:43:41;;;;;;;15.40;9.83;;;-5.80;99.90;-7.60;99664.00;;;;4997070;27;83450;-58
2022/12/14 04:46:12;;;;;;;17.23;10.30;;;-5.90;99.90;-7.60;99666.00;;;;5012523;27;104436;-60
2022/12/14 04:48:45;;;;;;;16.60;10.47;;;-7.00;99.90;-7.60;99667.00;;;;5015512;27;99459;-60
2022/12/14 04:51:31;;;;;;;16.97;10.27;;;-6.90;99.90;-7.60;99661.00;;;;5013664;27;95515;-60
2022/12/14 04:54:12;;;;;;;19.80;11.17;;;-6.90;99.90;-7.60;99663.00;;;;5011181;27;104808;-60
2022/12/14 04:57:04;;;;;;;15.63;9.13;;;-6.90;99.90;-7.60;99647.00;;;;5013526;27;107206;-58
2022/12/14 04:59:31;;;;;;;18.17;10.50;;;-6.90;99.90;-7.60;99640.00;;;;5000167;27;89795;-59
2022/12/14 05:02:41;;;;;;;21.60;15.27;;;-7.00;99.90;-7.70;99639.00;;;;5016385;27;83540;-58
2022/12/14 05:05:38;;;;;;;28.23;20.83;;;-7.00;99.90;-7.70;99640.00;;;;4979711;27;83291;-60
2022/12/14 05:08:18;;;;;;;16.87;11.53;;;-7.70;99.90;-7.80;99624.00;;;;5012233;27;84133;-60
2022/12/14 05:11:00;;;;;;;19.57;11.57;;;-7.10;99.90;-7.80;99628.00;;;;4997958;27;107646;-60
2022/12/14 05:13:48;;;;;;;18.43;11.23;;;-7.10;99.90;-7.80;99620.00;;;;4997281;27;100468;-61
2022/12/14 05:16:22;;;;;;;14.33;9.80;;;-7.10;99.90;-7.80;99624.00;;;;5008865;27;83951;-62
2022/12/14 05:18:49;;;;;;;14.10;10.00;;;-7.10;99.90;-7.80;99631.00;;;;5001210;27;83933;-60
2022/12/14 05:24:02;;;;;;;16.90;9.77;;;-7.20;99.90;-7.90;99626.00;;;;5011089;27;83363;-60
2022/12/14 05:26:31;;;;;;;18.93;10.47;;;-7.20;99.90;-7.90;99612.00;;;;5013982;27;84612;-60
2022/12/14 05:28:56;;;;;;;19.27;10.80;;;-7.20;99.90;-7.90;99612.00;;;;4985975;27;96875;-60
2022/12/14 05:31:23;;;;;;;14.80;9.73;;;-7.10;99.90;-8.00;99603.00;;;;5011227;27;113491;-60
2022/12/14 05:33:49;;;;;;;20.13;11.27;;;-7.30;99.90;-8.00;99616.00;;;;5015434;27;82052;-59
2022/12/14 05:36:15;;;;;;;18.33;10.03;;;-7.30;99.90;-8.10;99601.00;;;;5012795;27;114532;-59
2022/12/14 05:38:40;;;;;;;17.40;9.77;;;-7.30;99.90;-8.10;99605.00;;;;5013960;27;114289;-59
2022/12/14 05:41:06;;;;;;;18.27;10.97;;;-7.50;99.90;-8.10;99602.00;;;;5013635;27;84364;-60
2022/12/14 05:43:32;;;;;;;33.63;25.20;;;-7.50;99.90;-8.10;99605.00;;;;5015606;27;109969;-59
2022/12/14 05:46:03;;;;;;;107.07;58.83;;;-7.50;99.90;-8.10;99600.00;;;;5013754;27;112237;-59
2022/12/14 05:48:29;;;;;;;143.13;79.87;;;-7.50;99.90;-8.20;99596.00;;;;5010804;27;91798;-61
2022/12/14 05:51:03;;;;;;;92.03;58.27;;;-7.50;99.90;-8.20;99591.00;;;;5017315;27;84021;-60
2022/12/14 05:53:29;;;;;;;19.97;13.40;;;-7.50;99.90;-8.20;99597.00;;;;5015430;27;83438;-61
2022/12/14 05:55:55;;;;;;;20.07;12.70;;;-7.50;99.90;-8.30;99588.00;;;;5014497;27;113335;-60
2022/12/14 05:58:21;;;;;;;19.77;12.60;;;-7.60;99.90;-8.30;99577.00;;;;5014895;27;113801;-61
2022/12/14 06:00:46;;;;;;;20.17;11.43;;;-7.30;99.90;-8.40;99580.00;;;;5014295;27;113083;-61
2022/12/14 06:03:12;;;;;;;17.03;10.73;;;-7.70;99.90;-8.40;99581.00;;;;5013748;27;107741;-62
2022/12/14 06:05:37;;;;;;;22.90;10.83;;;-7.60;99.90;-8.40;99572.00;;;;5013732;27;111557;-59
2022/12/14 06:08:03;;;;;;;16.83;10.53;;;-7.10;99.90;-8.40;99580.00;;;;5014614;27;113317;-60
2022/12/14 06:10:29;;;;;;;18.77;11.07;;;-7.70;99.90;-8.50;99577.00;;;;5008426;27;104675;-60
2022/12/14 06:12:56;;;;;;;85.73;48.03;;;-7.80;99.90;-8.50;99573.00;;;;5011622;27;83501;-60
2022/12/14 06:15:21;;;;;;;45.40;25.87;;;-7.80;99.90;-8.50;99576.00;;;;5006574;27;113508;-61
2022/12/14 06:17:47;;;;;;;33.20;20.83;;;-7.70;99.90;-8.50;99572.00;;;;5012368;27;112701;-61
2022/12/14 06:20:13;;;;;;;22.57;14.53;;;-7.70;99.90;-8.50;99564.00;;;;5009020;27;112572;-61
2022/12/14 06:22:39;;;;;;;26.23;16.67;;;-7.00;99.90;-8.50;99554.00;;;;5010053;27;108875;-61
2022/12/14 06:25:06;;;;;;;21.70;15.13;;;-7.80;99.90;-8.50;99572.00;;;;5010498;27;110861;-61
2022/12/14 06:27:32;;;;;;;17.43;11.43;;;-7.80;99.90;-8.50;99551.00;;;;5009739;27;84787;-59
2022/12/14 06:29:58;;;;;;;22.17;13.43;;;-7.80;99.90;-8.50;99556.00;;;;5008512;27;113493;-60
2022/12/14 06:32:24;;;;;;;18.30;11.60;;;-7.80;99.90;-8.60;99560.00;;;;5009773;27;83327;-60
2022/12/14 06:34:50;;;;;;;18.53;11.53;;;-7.90;99.90;-8.60;99560.00;;;;5008239;27;83467;-61
2022/12/14 06:37:16;;;;;;;22.83;12.40;;;-7.80;99.90;-8.60;99572.00;;;;5011187;27;83647;-59
2022/12/14 06:39:41;;;;;;;19.97;11.83;;;-7.90;99.90;-8.60;99556.00;;;;5010553;27;84611;-59
2022/12/14 06:42:07;;;;;;;21.07;11.37;;;-7.90;99.90;-8.60;99550.00;;;;5010179;27;108957;-61
2022/12/14 06:44:33;;;;;;;21.27;11.10;;;-7.90;99.90;-8.60;99541.00;;;;5007022;27;84137;-60
2022/12/14 06:46:59;;;;;;;20.07;10.30;;;-7.90;99.90;-8.60;99545.00;;;;5009635;27;84803;-62
2022/12/14 06:49:25;;;;;;;20.77;11.27;;;-8.00;99.90;-8.70;99544.00;;;;5008926;27;111676;-59
2022/12/14 06:51:51;;;;;;;22.67;11.27;;;-7.90;99.90;-8.70;99542.00;;;;5011901;27;83284;-59
2022/12/14 06:54:17;;;;;;;18.80;11.07;;;-8.00;99.90;-8.70;99546.00;;;;5007240;27;114246;-61
2022/12/14 06:56:46;;;;;;;19.80;11.60;;;-8.00;99.90;-8.70;99550.00;;;;5011548;27;84665;-61
2022/12/14 06:59:12;;;;;;;14.97;10.50;;;-8.00;99.90;-8.80;99549.00;;;;5008223;27;84723;-60
2022/12/14 07:01:38;;;;;;;24.10;11.93;;;-8.00;99.90;-8.80;99540.00;;;;5011135;27;83571;-60
2022/12/14 07:04:05;;;;;;;23.20;11.37;;;-8.00;99.90;-8.70;99538.00;;;;5009791;27;112147;-60
2022/12/14 07:06:36;;;;;;;35.63;18.87;;;-8.10;99.90;-8.70;99550.00;;;;5011100;27;85033;-60
2022/12/14 07:09:04;;;;;;;545.47;302.80;;;-8.10;99.90;-8.80;99540.00;;;;5008240;27;83590;-60
2022/12/14 07:11:30;;;;;;;32.67;17.37;;;-8.00;99.90;-8.70;99533.00;;;;5009037;27;86987;-60
2022/12/14 07:13:59;;;;;;;26.60;13.87;;;-8.00;99.90;-8.70;99550.00;;;;5010162;27;103999;-61
2022/12/14 07:16:28;;;;;;;46.60;29.30;;;-8.10;99.90;-8.70;99528.00;;;;5009554;27;84975;-61
2022/12/14 07:18:54;;;;;;;22.43;13.60;;;-8.00;99.90;-8.70;99527.00;;;;5009940;27;84581;-61
2022/12/14 07:21:21;;;;;;;26.20;18.00;;;-8.00;99.90;-8.70;99527.00;;;;5012600;27;92606;-61
2022/12/14 07:23:48;;;;;;;20.87;12.50;;;-8.10;99.90;-8.70;99526.00;;;;5014454;27;83434;-61
2022/12/14 07:26:21;;;;;;;24.40;13.50;;;-8.00;99.90;-8.70;99527.00;;;;5014644;27;99843;-61
2022/12/14 07:28:47;;;;;;;21.87;11.90;;;-7.90;99.90;-8.60;99526.00;;;;5015533;27;84761;-60
2022/12/14 07:31:18;;;;;;;20.67;12.67;;;-7.90;99.90;-8.60;99517.00;;;;5013982;27;83439;-62
2022/12/14 07:33:44;;;;;;;18.80;11.90;;;-8.00;99.90;-8.50;99516.00;;;;5011736;27;88242;-60
2022/12/14 07:36:14;;;;;;;22.43;11.03;;;-7.90;99.90;-8.50;99524.00;;;;5012574;27;84477;-61
2022/12/14 07:38:41;;;;;;;23.90;13.90;;;-7.90;99.90;-8.50;99510.00;;;;5014456;27;83471;-61
2022/12/14 07:41:14;;;;;;;19.43;12.17;;;-7.80;99.90;-8.40;99503.00;;;;5012282;27;101415;-61
2022/12/14 07:43:41;;;;;;;19.20;11.70;;;-7.80;99.90;-8.40;99498.00;;;;5012029;27;86228;-62
2022/12/14 07:46:11;;;;;;;18.33;10.93;;;-7.80;99.90;-8.40;99511.00;;;;5011258;27;83952;-61
2022/12/14 07:48:37;;;;;;;19.10;12.30;;;-7.70;99.90;-8.30;99500.00;;;;5011414;27;83712;-61
2022/12/14 07:51:04;;;;;;;16.43;10.43;;;-7.70;99.90;-8.30;99502.00;;;;5012662;27;91564;-58
2022/12/14 07:53:30;;;;;;;20.67;12.27;;;-7.70;99.90;-8.20;99500.00;;;;5014137;27;86787;-59
2022/12/14 07:56:15;;;;;;;125.97;69.27;;;-7.60;99.90;-8.00;99495.00;;;;5014557;27;106325;-60
2022/12/14 07:58:41;;;;;;;34.70;20.03;;;-7.50;99.90;-7.90;99484.00;;;;5014437;27;84150;-60
2022/12/14 08:01:29;;;;;;;25.63;14.47;;;-7.40;99.90;-7.70;99504.00;;;;5013465;27;109868;-57
2022/12/14 08:04:04;;;;;;;41.73;31.97;;;-7.10;99.90;-7.50;99486.00;;;;5010650;27;83366;-59
2022/12/14 08:06:30;;;;;;;27.10;18.70;;;-6.90;99.90;-7.30;99490.00;;;;5012041;27;83564;-59
2022/12/14 08:08:57;;;;;;;27.03;15.57;;;-6.70;99.90;-7.20;99484.00;;;;5012951;27;83743;-61
2022/12/14 08:11:24;;;;;;;19.30;13.57;;;-6.70;99.90;-7.00;99491.00;;;;5009824;27;83511;-60
2022/12/14 08:14:03;;;;;;;24.13;12.80;;;-6.40;99.90;-6.80;99480.00;;;;5009654;27;83867;-61
2022/12/14 08:16:29;;;;;;;18.13;12.53;;;-6.30;99.90;-6.70;99478.00;;;;5012709;27;84539;-60
2022/12/14 08:18:57;;;;;;;20.43;13.83;;;-6.10;99.90;-6.50;99482.00;;;;5008516;27;83980;-60
2022/12/14 08:21:24;;;;;;;16.17;10.43;;;-6.00;99.90;-6.30;99477.00;;;;5013628;27;85524;-60
2022/12/14 08:23:52;;;;;;;26.07;13.70;;;-5.80;99.90;-6.10;99472.00;;;;5014563;27;83651;-60
2022/12/14 08:26:19;;;;;;;20.40;12.33;;;-5.60;99.90;-6.00;99474.00;;;;5012678;27;86732;-60
2022/12/14 08:28:45;;;;;;;51.17;33.03;;;-5.50;99.90;-5.90;99476.00;;;;5013163;27;84661;-58
2022/12/14 08:31:17;;;;;;;33.23;21.73;;;-5.40;99.90;-5.80;99468.00;;;;5010144;27;83831;-59
2022/12/14 08:33:44;;;;;;;29.73;18.33;;;-5.10;99.90;-5.80;99477.00;;;;5013245;27;84165;-60
2022/12/14 08:36:23;;;;;;;38.53;24.83;;;-5.20;99.90;-5.70;99468.00;;;;5011551;27;85470;-59
2022/12/14 08:38:57;;;;;;;19.50;12.33;;;-5.10;99.90;-5.70;99463.00;;;;5009600;27;84137;-61
2022/12/14 08:41:24;;;;;;;17.70;9.67;;;-5.20;99.90;-5.60;99468.00;;;;5010319;27;83508;-60
2022/12/14 08:43:53;;;;;;;18.10;10.53;;;-5.10;99.90;-5.60;99462.00;;;;5013203;27;83213;-58
2022/12/14 08:46:20;;;;;;;16.90;9.83;;;-5.00;99.90;-5.60;99457.00;;;;5007423;27;83814;-60
2022/12/14 08:48:46;;;;;;;17.23;9.70;;;-5.00;99.90;-5.50;99456.00;;;;5010671;27;84121;-60
2022/12/14 08:51:12;;;;;;;13.23;9.07;;;-5.00;99.90;-5.40;99455.00;;;;5012278;27;81923;-61
2022/12/14 08:53:39;;;;;;;15.70;10.30;;;-4.90;99.90;-5.40;99447.00;;;;5013799;27;83403;-60
2022/12/14 08:56:13;;;;;;;17.73;10.50;;;-4.80;99.90;-5.20;99449.00;;;;5014263;27;84297;-60
2022/12/14 08:58:39;;;;;;;17.90;10.90;;;-4.70;99.90;-5.10;99461.00;;;;5009791;27;83795;-59
2022/12/14 09:01:21;;;;;;;15.80;11.23;;;-4.70;99.90;-5.00;99448.00;;;;5009695;27;83302;-61
2022/12/14 09:03:47;;;;;;;16.70;11.07;;;-4.40;99.90;-4.80;99444.00;;;;5012940;27;83955;-62
2022/12/14 09:06:17;;;;;;;19.87;10.83;;;-4.40;99.90;-4.50;99447.00;;;;5009505;27;114280;-58
2022/12/14 09:08:43;;;;;;;23.17;13.20;;;-4.20;99.90;-4.20;99444.00;;;;5011322;27;83842;-58
2022/12/14 09:11:15;;;;;;;16.03;11.07;;;-4.00;99.90;-4.10;99432.00;;;;5010558;27;108017;-59
2022/12/14 09:13:42;;;;;;;15.17;10.27;;;-3.60;99.90;-4.00;99426.00;;;;5009759;27;83561;-60
2022/12/14 09:16:13;;;;;;;11.63;8.30;;;-3.60;99.90;-4.00;99425.00;;;;5009906;27;85846;-60
2022/12/14 09:18:38;;;;;;;12.23;8.63;;;-3.50;99.90;-3.90;99415.00;;;;5012949;27;90074;-62
2022/12/14 09:21:05;;;;;;;15.60;9.37;;;-3.50;99.90;-3.90;99411.00;;;;5012150;27;83002;-59
2022/12/14 09:23:33;;;;;;;12.20;8.60;;;-3.40;99.90;-3.90;99415.00;;;;5011084;27;85088;-60
2022/12/14 09:26:05;;;;;;;17.67;10.27;;;-3.40;99.90;-3.90;99409.00;;;;5010903;27;84579;-60
2022/12/14 09:28:34;;;;;;;18.67;9.83;;;-3.60;99.90;-3.90;99408.00;;;;5011632;27;84885;-60
2022/12/14 09:31:05;;;;;;;17.83;10.40;;;-3.40;99.90;-3.80;99388.00;;;;5012899;27;82898;-59
2022/12/14 09:33:31;;;;;;;14.83;9.83;;;-2.90;99.90;-3.80;99382.00;;;;5009317;27;83840;-61
2022/12/14 09:36:05;;;;;;;13.23;8.77;;;-3.40;99.90;-3.70;99376.00;;;;5014079;27;83713;-60
2022/12/14 09:38:33;;;;;;;14.07;9.13;;;-3.20;99.90;-3.60;99385.00;;;;5008940;27;82673;-60
2022/12/14 09:41:04;;;;;;;18.57;11.57;;;-3.20;99.90;-3.50;99385.00;;;;5010807;27;82632;-61
2022/12/14 09:43:40;;;;;;;28.73;18.97;;;-3.10;99.90;-3.50;99379.00;;;;5021938;27;83481;-61
2022/12/14 09:46:40;;;;;;;22.53;16.00;;;-2.90;99.90;-3.40;99370.00;;;;5008528;27;84731;-60
2022/12/14 09:49:32;;;;;;;15.10;10.83;;;-2.90;99.90;-3.30;99359.00;;;;5007615;27;83945;-61
2022/12/14 09:52:04;;;;;;;19.50;9.23;;;-3.00;99.90;-3.30;99355.00;;;;4999616;27;83439;-61
2022/12/14 09:54:37;;;;;;;11.90;8.83;;;-2.80;99.90;-3.30;99363.00;;;;5013375;27;83520;-61
2022/12/14 09:57:11;;;;;;;15.17;8.70;;;-2.70;99.90;-3.30;99352.00;;;;5005404;27;86410;-61
2022/12/14 09:59:37;;;;;;;13.50;9.50;;;-2.90;99.90;-3.20;99355.00;;;;5009961;27;106863;-61
2022/12/14 10:02:34;;;;;;;15.63;9.90;;;-2.80;99.90;-3.20;99333.00;;;;5008004;27;82914;-61
2022/12/14 10:05:35;;;;;;;14.67;9.70;;;-2.70;99.90;-3.20;99336.00;;;;5009543;27;83042;-61
2022/12/14 10:08:41;;;;;;;11.93;9.57;;;-2.80;99.90;-3.20;99338.00;;;;5002891;27;82304;-60
2022/12/14 10:11:48;;;;;;;14.83;9.23;;;-2.80;99.90;-3.20;99333.00;;;;5009663;27;102631;-59
2022/12/14 10:14:56;;;;;;;13.80;8.83;;;-2.50;99.90;-3.10;99326.00;;;;5009375;27;82809;-61
2022/12/14 10:17:57;;;;;;;16.60;10.03;;;-2.70;99.90;-3.00;99334.00;;;;5008836;27;86290;-59
2022/12/14 10:20:42;;;;;;;12.60;8.23;;;-2.60;99.90;-2.90;99329.00;;;;5010044;27;83778;-60
2022/12/14 10:23:15;;;;;;;9.87;8.07;;;-2.50;99.90;-2.80;99331.00;;;;5011370;27;82696;-59
2022/12/14 10:25:45;;;;;;;20.10;10.67;;;-2.40;99.90;-2.70;99322.00;;;;5010401;27;103321;-62
2022/12/14 10:28:20;;;;;;;14.60;8.27;;;-2.30;99.90;-2.60;99321.00;;;;5003444;27;83657;-61
2022/12/14 10:30:49;;;;;;;14.70;9.67;;;-2.10;99.90;-2.50;99323.00;;;;5011081;27;83065;-61
2022/12/14 10:33:28;;;;;;;12.30;7.70;;;-2.10;99.90;-2.40;99311.00;;;;5004224;27;82804;-60
2022/12/14 10:35:57;;;;;;;12.90;8.20;;;-2.00;99.90;-2.30;99313.00;;;;5012691;27;82107;-60
2022/12/14 10:38:31;;;;;;;13.67;9.00;;;-2.00;99.90;-2.30;99317.00;;;;5003850;27;105921;-61
2022/12/14 10:41:07;;;;;;;228.13;126.47;;;-1.90;99.90;-2.30;99315.00;;;;5013393;27;82889;-62
2022/12/14 10:44:12;;;;;;;34.57;24.90;;;-1.90;99.90;-2.30;99316.00;;;;5007884;27;104521;-62
2022/12/14 10:46:51;;;;;;;17.77;14.20;;;-1.90;99.90;-2.30;99309.00;;;;5007956;27;101760;-61
2022/12/14 10:49:53;;;;;;;35.93;25.17;;;-1.80;99.90;-2.20;99299.00;;;;5006163;27;83634;-63
2022/12/14 10:52:25;;;;;;;40.03;23.50;;;-1.80;99.90;-2.20;99306.00;;;;5008651;27;83726;-61
2022/12/14 10:55:05;;;;;;;56.97;39.77;;;-1.20;99.90;-2.20;99294.00;;;;5009908;27;83530;-62
2022/12/14 10:57:31;;;;;;;34.20;24.30;;;-1.80;99.90;-2.20;99307.00;;;;5006816;27;83504;-62
2022/12/14 10:59:57;;;;;;;388.50;236.93;;;-1.80;99.90;-2.20;99304.00;;;;5009978;27;112735;-60
2022/12/14 11:02:26;;;;;;;40.50;23.77;;;-1.80;99.90;-2.20;99290.00;;;;5006175;27;115617;-62
2022/12/14 11:05:15;;;;;;;30.40;17.70;;;-2.20;99.90;-2.10;99287.00;;;;5003625;27;107525;-62
2022/12/14 11:07:44;;;;;;;15.50;11.60;;;-1.70;99.90;-2.10;99286.00;;;;5010390;27;96300;-61
2022/12/14 11:10:24;;;;;;;13.90;12.20;;;-1.70;99.90;-2.10;99279.00;;;;5011472;27;84492;-62
2022/12/14 11:13:13;;;;;;;17.13;10.13;;;-1.70;99.90;-2.10;99278.00;;;;5009260;27;83876;-62
2022/12/14 11:15:45;;;;;;;13.67;10.53;;;-1.80;99.90;-2.10;99266.00;;;;5002739;27;83928;-61
2022/12/14 11:18:32;;;;;;;15.97;9.10;;;-1.70;99.90;-2.00;99273.00;;;;5008778;27;84559;-63
2022/12/14 11:21:02;;;;;;;23.40;18.00;;;-1.60;99.90;-2.00;99271.00;;;;5005723;27;83134;-60
2022/12/14 11:23:46;;;;;;;11.57;7.93;;;-1.60;99.90;-2.00;99268.00;;;;5011318;27;84392;-61